Mitchell, IN (47446)

2:03 PM EDT on August 26, 2016 (GMT -0400)
yockey | | Change Station

Elev 654 ft 38.79 °N, 86.50 °W | Updated 1 minute ago

Scattered Clouds
Scattered Clouds
89.3 °F
Feels Like 101 °F
N
1.0
Wind Variable Wind from SSW
Gusts 1.0 mph

Today
High -- | Low -- °F
--% Chance of Precip.
Yesterday
High -- | Low -- °F
Precip. -- in
Pressure 30.09 in
Visibility 10.0 miles
Clouds Scattered Clouds 3300 ft
Heat Index 101 °F
Dew Point 76 °F
Humidity 65%
Rainfall 0.00 in
Snow Depth Not available.
7:10 AM 8:24 PM
Waning Crescent, 32% visible
METAR KBMG 261753Z 17004KT 10SM SCT033 31/22 A3012 RMK AO2 SLP189 T03110222 10322 20217 58008
Pressure 30.09 in
Visibility 10.0 miles
Clouds Scattered Clouds 3300 ft
Heat Index 101 °F
Dew Point 76 °F
Humidity 65%
Rainfall 0.00 in
Snow Depth Not available.
7:10 AM 8:24 PM
Waning Crescent, 32% visible
METAR KBMG 261753Z 17004KT 10SM SCT033 31/22 A3012 RMK AO2 SLP189 T03110222 10322 20217 58008

10-Day Weather Forecast

Almanac

Astronomy

Aug. 26, 2016 Rise Set
Actual Time
Civil Twilight
Nautical Twilight
Astronomical Twilight
Moon
Length of Visible Light
Length of Day
Tomorrow will be .
, % of the Moon is Illuminated

Today's Extremes

State Highs State Lows

Community

WunderPhotos

Upload Photos

1,935,160 photos uploaded!

WunderBlog® & News

Nearby

Air Quality

  Air Quality AQ Index Pollutant
Not available.

Snow Depth

Station Depth Elevation

Earthquake Activity

City Distance Mag. Time & Date
Minimum magnitude displayed is 2.5.

Coastal Water Temperatures

Place Temperature

Stations

Nearby Weather Stations

Station Location Temp. Windchill Dew Point Humidity Wind Precip. Elev Updated Type
                   

Watches & Warnings

There are currently no watches in effect.